Time;durP1;ratioP1;P1;durP2;ratioP2;P2;SDS_P1;SDS_P2;PMS_P1;PMS_P2;Temp;Humidity;BMP_temperature;BMP_pressure;BME280_temperature;BME280_humidity;BME280_pressure;Samples;Min_cycle;Max_cycle;Signal;HPM_P1;HPM_P2
2023/10/22 00:01:17;;;;;;;6.32;1.50;;;;;;;;;;5099166;27;20744;-84
2023/10/22 00:03:43;;;;;;;6.45;1.52;;;;;;;;;;5137824;27;20397;-84
2023/10/22 00:06:09;;;;;;;5.68;1.40;;;;;;;;;;5103839;27;20407;-84
2023/10/22 00:08:35;;;;;;;7.45;1.80;;;;;;;;;;5088320;27;20503;-83
2023/10/22 00:11:02;;;;;;;5.57;1.80;;;;;;;;;;5130329;27;20420;-85
2023/10/22 00:13:28;;;;;;;7.05;1.48;;;;;;;;;;5079860;28;20479;-83
2023/10/22 00:15:54;;;;;;;5.88;1.63;;;;;;;;;;5080073;28;20426;-84
2023/10/22 00:18:20;;;;;;;5.73;1.67;;;;;;;;;;5096502;28;20392;-84
2023/10/22 00:20:46;;;;;;;4.70;1.33;;;;;;;;;;5109774;27;20403;-84
2023/10/22 00:23:12;;;;;;;5.15;1.70;;;;;;;;;;5075636;28;20407;-85
2023/10/22 00:25:38;;;;;;;4.50;1.50;;;;;;;;;;5098868;27;20420;-85
2023/10/22 00:28:04;;;;;;;4.50;1.50;;;;;;;;;;5107301;27;20397;-82
2023/10/22 00:30:30;;;;;;;5.82;1.85;;;;;;;;;;5137878;27;20413;-85
2023/10/22 00:32:56;;;;;;;6.10;1.63;;;;;;;;;;5137180;27;20906;-84
2023/10/22 00:35:23;;;;;;;4.95;1.50;;;;;;;;;;5113943;27;20423;-85
2023/10/22 00:37:49;;;;;;;5.13;1.60;;;;;;;;;;5096018;28;20457;-84
2023/10/22 00:40:15;;;;;;;6.32;1.50;;;;;;;;;;5095650;28;20408;-84
2023/10/22 00:42:41;;;;;;;8.50;1.75;;;;;;;;;;5096135;28;20423;-84
2023/10/22 00:45:07;;;;;;;6.05;1.50;;;;;;;;;;5101473;27;20391;-83
2023/10/22 00:47:34;;;;;;;9.23;1.70;;;;;;;;;;5089731;28;21123;-83
2023/10/22 00:50:00;;;;;;;5.53;1.73;;;;;;;;;;5115539;27;20470;-84
2023/10/22 00:52:26;;;;;;;4.90;1.50;;;;;;;;;;5099265;27;20395;-84
2023/10/22 00:54:54;;;;;;;5.50;1.70;;;13.20;99.90;;;;;;5102980;27;20725;-82
2023/10/22 00:57:22;;;;;;;6.03;1.40;;;13.20;99.90;;;;;;5104681;27;20468;-84
2023/10/22 00:59:51;;;;;;;5.78;1.48;;;13.40;99.90;;;;;;5116138;27;20398;-84
2023/10/22 01:02:17;;;;;;;4.25;1.20;;;13.10;99.90;;;;;;5124148;27;20440;-84
2023/10/22 01:04:44;;;;;;;5.75;1.30;;;;;;;;;;5096663;27;20406;-84
2023/10/22 01:07:10;;;;;;;5.45;1.10;;;;;;;;;;5079050;28;20400;-84
2023/10/22 01:09:36;;;;;;;4.82;1.67;;;;;;;;;;5095958;28;20438;-84
2023/10/22 01:12:04;;;;;;;7.15;2.05;;;12.60;99.90;;;;;;5085114;28;21173;-83
2023/10/22 01:14:30;;;;;;;6.20;1.35;;;;;;;;;;5108630;28;20412;-84
2023/10/22 01:16:56;;;;;;;4.78;1.35;;;;;;;;;;5085495;28;20406;-83
2023/10/22 01:19:22;;;;;;;4.53;1.27;;;;;;;;;;5075612;28;20401;-84
2023/10/22 01:21:49;;;;;;;5.23;1.50;;;;;;;;;;5103907;28;20734;-84
2023/10/22 01:24:15;;;;;;;5.30;1.30;;;;;;;;;;5094651;28;20415;-84
2023/10/22 01:26:42;;;;;;;5.25;1.48;;;12.20;99.90;;;;;;5091827;28;20449;-85
2023/10/22 01:29:08;;;;;;;4.68;1.25;;;;;;;;;;5105606;28;20755;-84
2023/10/22 01:31:34;;;;;;;4.45;1.20;;;;;;;;;;5081597;28;20418;-85
2023/10/22 01:34:00;;;;;;;6.50;1.30;;;;;;;;;;5120442;27;21067;-85
2023/10/22 01:36:26;;;;;;;7.30;1.50;;;;;;;;;;5119470;27;20400;-84
2023/10/22 01:38:52;;;;;;;4.88;1.38;;;;;;;;;;5104037;28;20425;-85
2023/10/22 01:41:18;;;;;;;5.22;1.50;;;;;;;;;;5091772;28;20435;-85
2023/10/22 01:43:44;;;;;;;5.30;1.50;;;;;;;;;;5080319;28;20907;-84
2023/10/22 01:46:10;;;;;;;6.28;1.63;;;;;;;;;;5111528;28;21087;-83
2023/10/22 01:48:38;;;;;;;5.85;1.40;;;;;;;;;;5110178;28;20400;-83
2023/10/22 01:51:04;;;;;;;6.10;1.35;;;;;;;;;;5094961;28;20916;-83
2023/10/22 01:53:30;;;;;;;5.43;1.50;;;;;;;;;;5100330;27;20397;-84
2023/10/22 01:55:56;;;;;;;5.72;1.60;;;;;;;;;;5112778;27;20896;-84
2023/10/22 01:58:22;;;;;;;7.10;1.63;;;;;;;;;;5111055;28;20400;-83
2023/10/22 02:00:48;;;;;;;5.37;1.67;;;;;;;;;;5075440;28;20423;-83
2023/10/22 02:03:15;;;;;;;4.88;1.60;;;11.70;99.90;;;;;;5111540;27;20501;-83
2023/10/22 02:05:41;;;;;;;4.50;1.60;;;;;;;;;;5132446;27;20398;-83
2023/10/22 02:08:07;;;;;;;10.10;1.90;;;;;;;;;;5116996;27;20405;-85
2023/10/22 02:10:34;;;;;;;8.57;1.90;;;;;;;;;;5089205;28;20445;-84
2023/10/22 02:13:00;;;;;;;6.60;1.87;;;;;;;;;;5091361;28;20529;-85
2023/10/22 02:15:26;;;;;;;8.55;2.15;;;;;;;;;;5091148;28;20401;-84
2023/10/22 02:17:53;;;;;;;7.32;2.17;;;;;;;;;;5087687;28;20468;-84
2023/10/22 02:20:19;;;;;;;4.55;1.90;;;;;;;;;;5107149;28;20402;-83
2023/10/22 02:22:45;;;;;;;6.25;2.00;;;;;;;;;;5115006;28;20723;-83
2023/10/22 02:25:11;;;;;;;5.07;1.67;;;;;;;;;;5105964;28;20398;-83
2023/10/22 02:27:37;;;;;;;6.22;2.03;;;;;;;;;;5118978;28;20406;-84
2023/10/22 02:30:03;;;;;;;8.68;2.53;;;;;;;;;;5073989;28;20390;-84
2023/10/22 02:32:29;;;;;;;7.53;2.20;;;;;;;;;;5074390;28;20394;-84
2023/10/22 02:34:55;;;;;;;6.63;1.97;;;;;;;;;;5090638;28;20433;-84
2023/10/22 02:37:21;;;;;;;4.68;1.90;;;;;;;;;;5089234;28;20404;-84
2023/10/22 02:39:48;;;;;;;5.40;2.05;;;;;;;;;;5094244;28;20462;-83
2023/10/22 02:42:14;;;;;;;6.90;2.15;;;;;;;;;;5074112;28;21139;-82
2023/10/22 02:44:40;;;;;;;6.20;2.03;;;;;;;;;;5074210;28;20415;-83
2023/10/22 02:47:06;;;;;;;5.72;2.20;;;;;;;;;;5115358;28;20460;-83
2023/10/22 02:49:32;;;;;;;7.47;2.28;;;;;;;;;;5131602;28;20398;-83
2023/10/22 02:51:58;;;;;;;5.93;2.30;;;;;;;;;;5087332;28;20426;-83
2023/10/22 02:54:24;;;;;;;5.85;2.20;;;;;;;;;;5090656;28;20414;-84
2023/10/22 02:56:50;;;;;;;6.80;2.30;;;;;;;;;;5074045;28;20397;-84
2023/10/22 02:59:16;;;;;;;7.13;2.47;;;;;;;;;;5074576;28;20398;-84
2023/10/22 03:01:43;;;;;;;7.50;2.45;;;;;;;;;;5090893;28;20443;-83
2023/10/22 03:04:09;;;;;;;6.40;2.50;;;;;;;;;;5073712;28;20402;-82
2023/10/22 03:06:35;;;;;;;6.90;2.70;;;;;;;;;;5073601;28;20409;-84
2023/10/22 03:09:03;;;;;;;5.40;2.77;;;;;;;;;;5084131;28;20400;-84
2023/10/22 03:11:29;;;;;;;6.87;2.90;;;;;;;;;;5080902;28;20512;-85
2023/10/22 03:13:55;;;;;;;6.60;2.95;;;;;;;;;;5077478;28;20402;-84
2023/10/22 03:16:21;;;;;;;6.78;2.85;;;;;;;;;;5077682;28;20428;-84
2023/10/22 03:18:48;;;;;;;6.95;3.58;;;;;;;;;;5094566;28;20394;-84
2023/10/22 03:21:28;;;;;;;7.40;3.00;;;;;;;;;;5107156;28;20404;-85
2023/10/22 03:23:54;;;;;;;8.30;3.40;;;;;;;;;;5094100;28;20886;-85
2023/10/22 03:26:20;;;;;;;11.80;3.90;;;;;;;;;;5106681;28;20401;-86
2023/10/22 03:28:47;;;;;;;11.30;3.78;;;11.60;99.90;;;;;;5094446;28;20418;-86
2023/10/22 03:31:14;;;;;;;8.13;3.60;;;;;;;;;;5094131;28;20425;-86
2023/10/22 03:33:40;;;;;;;9.05;3.38;;;;;;;;;;5095302;28;20433;-86
2023/10/22 03:36:09;;;;;;;8.30;3.30;;;;;;;;;;5086771;28;20396;-85
2023/10/22 03:38:35;;;;;;;9.98;3.30;;;;;;;;;;5114444;28;20404;-86
2023/10/22 03:41:04;;;;;;;9.52;3.60;;;;;;;;;;5113120;28;20479;-86
2023/10/22 03:43:31;;;;;;;9.48;3.20;;;;;;;;;;5110596;28;20409;-87
2023/10/22 03:45:57;;;;;;;8.43;3.50;;;;;;;;;;5097074;28;21008;-87
2023/10/22 03:48:24;;;;;;;7.57;3.50;;;;;;;;;;5114130;28;20400;-87
2023/10/22 03:50:50;;;;;;;8.55;3.67;;;;;;;;;;5113818;28;20911;-86
2023/10/22 03:53:16;;;;;;;7.22;3.78;;;;;;;;;;5113944;28;20448;-88
2023/10/22 03:55:42;;;;;;;7.55;3.90;;;;;;;;;;5097014;28;20405;-87
2023/10/22 03:58:08;;;;;;;9.07;3.85;;;;;;;;;;5091953;28;20927;-87
2023/10/22 04:00:34;;;;;;;7.68;3.47;;;;;;;;;;5108539;27;20509;-86
2023/10/22 04:03:01;;;;;;;8.23;3.67;;;12.00;99.90;;;;;;5101222;28;20744;-87
2023/10/22 04:05:27;;;;;;;6.90;3.80;;;;;;;;;;5099443;28;20432;-86
2023/10/22 04:07:53;;;;;;;6.30;3.17;;;;;;;;;;5077073;28;20409;-86
2023/10/22 04:10:20;;;;;;;6.65;3.30;;;;;;;;;;5075588;28;20416;-86
2023/10/22 04:12:46;;;;;;;4.20;2.33;;;;;;;;;;5099480;27;20410;-87
2023/10/22 04:15:12;;;;;;;7.72;3.58;;;;;;;;;;5113887;28;20396;-86
2023/10/22 04:17:38;;;;;;;5.85;3.40;;;;;;;;;;5113160;28;20404;-87
2023/10/22 04:20:05;;;;;;;5.73;3.17;;;;;;;;;;5099794;27;20466;-86
2023/10/22 04:22:32;;;;;;;6.78;3.40;;;;;;;;;;5099825;27;20915;-86
2023/10/22 04:24:58;;;;;;;4.95;3.28;;;;;;;;;;5104564;27;20686;-76
2023/10/22 04:27:24;;;;;;;5.38;3.38;;;;;;;;;;5116388;27;20399;-76
2023/10/22 04:29:52;;;;;;;6.03;3.38;;;;;;;;;;5084223;28;20400;-76
2023/10/22 04:32:18;;;;;;;6.72;3.65;;;;;;;;;;5100066;27;20461;-76
2023/10/22 04:34:44;;;;;;;7.10;3.67;;;;;;;;;;5105490;27;21078;-76
2023/10/22 04:37:11;;;;;;;5.85;3.58;;;;;;;;;;5118348;27;20408;-76
2023/10/22 04:39:37;;;;;;;6.47;3.70;;;;;;;;;;5112330;27;20496;-76
2023/10/22 04:42:04;;;;;;;6.20;3.75;;;;;;;;;;5101606;27;20392;-76
2023/10/22 04:44:30;;;;;;;7.25;4.00;;;;;;;;;;5096111;27;20408;-76
2023/10/22 04:46:56;;;;;;;6.18;4.40;;;;;;;;;;5101959;28;20407;-76
2023/10/22 04:49:22;;;;;;;7.13;4.82;;;;;;;;;;5066706;27;20752;-76
2023/10/22 04:51:48;;;;;;;8.13;4.82;;;;;;;;;;5114539;27;20410;-76
2023/10/22 04:54:14;;;;;;;8.20;5.13;;;;;;;;;;5101634;27;20433;-77
2023/10/22 04:56:40;;;;;;;6.70;5.00;;;;;;;;;;5099310;27;20784;-77
2023/10/22 04:59:06;;;;;;;7.13;5.22;;;;;;;;;;5098370;27;20410;-76
2023/10/22 05:01:32;;;;;;;7.85;5.68;;;;;;;;;;5094101;27;20921;-77
2023/10/22 05:03:59;;;;;;;7.87;5.60;;;;;;;;;;5114996;27;20409;-76
2023/10/22 05:06:25;;;;;;;10.00;6.25;;;;;;;;;;5098835;27;20423;-76
2023/10/22 05:08:51;;;;;;;8.85;6.30;;;;;;;;;;5100743;27;20398;-76
2023/10/22 05:11:17;;;;;;;9.45;6.53;;;;;;;;;;5115707;27;20916;-76
2023/10/22 05:13:47;;;;;;;11.80;9.43;;;;;;;;;;5115043;27;20537;-76
2023/10/22 05:16:14;;;;;;;9.98;7.57;;;;;;;;;;5119750;27;20406;-76
2023/10/22 05:18:40;;;;;;;11.10;7.10;;;;;;;;;;5096371;28;20489;-76
2023/10/22 05:21:07;;;;;;;12.90;7.20;;;;;;;;;;5095124;27;20880;-76
2023/10/22 05:23:33;;;;;;;9.80;6.70;;;12.30;99.90;;;;;;5114263;27;20403;-76
2023/10/22 05:26:12;;;;;;;11.40;8.15;;;12.50;99.90;;;;;;5098840;27;20399;-76
2023/10/22 05:28:41;;;;;;;13.80;8.18;;;;;;;;;;5112693;27;20415;-77
2023/10/22 05:31:15;;;;;;;40.33;9.52;;;12.40;99.90;;;;;;5116568;27;20430;-76
2023/10/22 05:33:42;;;;;;;24.85;8.85;;;;;;;;;;5095993;28;20401;-78
2023/10/22 05:36:15;;;;;;;17.67;9.87;;;12.00;99.90;;;;;;5087766;28;20559;-76
2023/10/22 05:38:41;;;;;;;13.68;7.03;;;;;;;;;;5104069;27;20399;-77
2023/10/22 05:41:08;;;;;;;11.82;6.35;;;;;;;;;;5100989;28;20400;-77
2023/10/22 05:43:34;;;;;;;12.98;6.30;;;;;;;;;;5125195;27;20446;-77
2023/10/22 05:46:00;;;;;;;7.80;5.60;;;;;;;;;;5118367;27;20476;-78
2023/10/22 05:48:26;;;;;;;8.60;5.60;;;;;;;;;;5115279;27;20403;-78
2023/10/22 05:50:52;;;;;;;19.70;4.43;;;;;;;;;;5096832;28;20750;-77
2023/10/22 05:53:18;;;;;;;4.05;3.00;;;;;;;;;;5141223;27;20394;-77
2023/10/22 05:55:44;;;;;;;4.28;2.60;;;;;;;;;;5126234;27;20462;-77
2023/10/22 05:58:10;;;;;;;5.10;2.50;;;;;;;;;;5132917;27;20396;-77
2023/10/22 06:00:38;;;;;;;9.57;2.38;;;;;;;;;;5082119;28;20926;-77
2023/10/22 06:03:04;;;;;;;4.80;2.45;;;;;;;;;;5094242;28;20408;-76
2023/10/22 06:05:30;;;;;;;6.13;3.10;;;;;;;;;;5097082;28;20419;-76
2023/10/22 06:07:56;;;;;;;4.32;1.98;;;;;;;;;;5104278;28;20557;-76
2023/10/22 06:10:22;;;;;;;3.33;1.70;;;;;;;;;;5112498;27;20405;-75
2023/10/22 06:12:51;;;;;;;4.03;1.80;;;;;;;;;;5126705;27;20912;-75
2023/10/22 06:15:17;;;;;;;7.90;2.40;;;;;;;;;;5112898;27;20389;-76
2023/10/22 06:17:44;;;;;;;6.57;2.40;;;;;;;;;;5061698;28;20729;-75
2023/10/22 06:20:10;;;;;;;7.22;2.35;;;;;;;;;;5119351;27;20397;-76
2023/10/22 06:22:37;;;;;;;6.25;2.10;;;;;;;;;;5080184;28;20420;-76
2023/10/22 06:25:03;;;;;;;10.18;2.38;;;;;;;;;;5096561;28;20890;-76
2023/10/22 06:27:30;;;;;;;9.98;2.55;;;;;;;;;;5096360;27;20410;-75
2023/10/22 06:29:56;;;;;;;7.80;2.28;;;;;;;;;;5116531;27;20903;-75
2023/10/22 06:32:22;;;;;;;9.00;2.63;;;;;;;;;;5112173;27;20475;-75
2023/10/22 06:34:48;;;;;;;9.85;2.58;;;;;;;;;;5109414;27;20485;-75
2023/10/22 06:37:14;;;;;;;14.00;2.90;;;;;;;;;;5123158;28;20476;-75
2023/10/22 06:39:40;;;;;;;10.05;2.42;;;;;;;;;;5097138;28;20417;-75
2023/10/22 06:42:07;;;;;;;14.30;3.83;;;;;;;;;;5094930;28;20454;-75
2023/10/22 06:44:33;;;;;;;11.20;2.90;;;;;;;;;;5090959;27;20422;-74
2023/10/22 06:46:59;;;;;;;11.65;2.90;;;;;;;;;;5095623;27;20400;-75
2023/10/22 06:49:25;;;;;;;10.65;3.30;;;;;;;;;;5116741;27;20397;-75
2023/10/22 06:51:51;;;;;;;9.13;3.17;;;;;;;;;;5067559;28;20412;-75
2023/10/22 06:54:17;;;;;;;9.60;3.30;;;;;;;;;;5077249;28;20822;-75
2023/10/22 06:56:43;;;;;;;10.50;3.53;;;;;;;;;;5106737;27;20416;-74
2023/10/22 06:59:09;;;;;;;10.67;3.63;;;;;;;;;;5112528;27;20463;-75
2023/10/22 07:01:36;;;;;;;10.85;3.90;;;;;;;;;;5099676;27;20409;-75
2023/10/22 07:04:02;;;;;;;9.68;4.10;;;;;;;;;;5116387;27;20397;-74
2023/10/22 07:06:28;;;;;;;12.60;4.18;;;;;;;;;;5100214;27;20406;-75
2023/10/22 07:08:54;;;;;;;10.38;4.20;;;;;;;;;;5099610;27;20414;-75
2023/10/22 07:11:20;;;;;;;10.90;4.50;;;;;;;;;;5085027;27;20420;-74
2023/10/22 07:13:47;;;;;;;9.50;4.10;;;;;;;;;;5110670;27;20408;-74
2023/10/22 07:16:13;;;;;;;12.63;4.00;;;;;;;;;;5079184;28;20400;-75
2023/10/22 07:18:39;;;;;;;8.30;3.92;;;;;;;;;;5105672;27;20394;-74
2023/10/22 07:21:05;;;;;;;9.83;4.27;;;;;;;;;;5131622;27;20405;-75
2023/10/22 07:23:31;;;;;;;8.57;4.13;;;;;;;;;;5085069;27;20406;-75
2023/10/22 07:25:58;;;;;;;11.57;4.25;;;;;;;;;;5105986;27;20406;-75
2023/10/22 07:28:24;;;;;;;10.00;4.40;;;;;;;;;;5106590;27;20410;-74
2023/10/22 07:30:51;;;;;;;8.63;3.88;;;;;;;;;;5096873;27;20981;-75
2023/10/22 07:33:17;;;;;;;11.80;4.15;;;;;;;;;;5115510;27;20394;-75
2023/10/22 07:35:57;;;;;;;8.35;3.45;;;11.40;99.90;;;;;;5132184;27;20520;-75
2023/10/22 07:38:24;;;;;;;7.90;3.70;;;;;;;;;;5106843;27;20462;-75
2023/10/22 07:40:55;;;;;;;8.35;3.50;;;;;;;;;;5129476;27;20771;-74
2023/10/22 07:43:21;;;;;;;7.20;3.40;;;;;;;;;;5114573;27;20425;-75
2023/10/22 07:45:47;;;;;;;11.90;3.92;;;;;;;;;;5113631;27;20449;-75
2023/10/22 07:48:14;;;;;;;9.57;3.60;;;;;;;;;;5123982;27;20408;-75
2023/10/22 07:50:40;;;;;;;7.70;3.70;;;;;;;;;;5108453;27;20952;-75
2023/10/22 07:53:06;;;;;;;7.80;3.63;;;;;;;;;;5114630;27;20390;-75
2023/10/22 07:55:33;;;;;;;12.43;3.90;;;;;;;;;;5098257;27;20405;-75
2023/10/22 07:57:59;;;;;;;7.80;3.75;;;;;;;;;;5123612;27;20748;-76
2023/10/22 08:00:26;;;;;;;7.80;3.58;;;;;;;;;;5111055;27;20395;-75
2023/10/22 08:02:52;;;;;;;10.87;3.90;;;;;;;;;;5097429;27;20448;-75
2023/10/22 08:05:19;;;;;;;10.57;4.15;;;;;;;;;;5104776;27;20401;-75
2023/10/22 08:07:45;;;;;;;13.10;4.18;;;;;;;;;;5111662;27;20443;-75
2023/10/22 08:10:12;;;;;;;11.93;4.10;;;;;;;;;;5132951;27;20473;-75
2023/10/22 08:12:38;;;;;;;10.73;5.00;;;;;;;;;;5095699;28;20474;-76
2023/10/22 08:15:05;;;;;;;10.77;4.15;;;;;;;;;;5107607;27;20519;-75
2023/10/22 08:17:31;;;;;;;7.87;4.40;;;;;;;;;;5098032;27;20404;-74
2023/10/22 08:19:57;;;;;;;7.50;3.78;;;;;;;;;;5096117;28;20465;-75
2023/10/22 08:22:23;;;;;;;9.23;3.70;;;;;;;;;;5090777;27;20419;-75
2023/10/22 08:24:49;;;;;;;10.23;3.88;;;;;;;;;;5105054;27;20498;-74
2023/10/22 08:27:15;;;;;;;8.38;3.60;;;;;;;;;;5115778;28;20903;-74
2023/10/22 08:29:41;;;;;;;9.20;3.70;;;;;;;;;;5119186;27;20897;-75
2023/10/22 08:32:08;;;;;;;11.90;3.53;;;;;;;;;;5101751;27;20424;-75
2023/10/22 08:34:34;;;;;;;8.13;3.10;;;;;;;;;;5106158;27;20405;-75
2023/10/22 08:37:00;;;;;;;7.97;3.00;;;;;;;;;;5093536;27;20912;-75
2023/10/22 08:39:26;;;;;;;9.82;3.38;;;;;;;;;;5098915;28;20881;-76
2023/10/22 08:42:00;;;;;;;11.00;3.00;;;12.20;99.90;;;;;;5115177;27;20749;-75
2023/10/22 08:44:28;;;;;;;7.73;2.77;;;;;;;;;;5086469;27;20492;-75
2023/10/22 08:46:54;;;;;;;8.73;3.40;;;;;;;;;;5103847;27;20465;-75
2023/10/22 08:49:22;;;;;;;8.23;2.50;;;12.40;99.90;;;;;;5099256;27;20398;-75
2023/10/22 08:51:48;;;;;;;8.07;2.50;;;;;;;;;;5115198;27;20512;-75
2023/10/22 08:54:16;;;;;;;9.23;2.35;;;;;;;;;;5108896;27;20433;-75
2023/10/22 08:56:43;;;;;;;7.88;2.50;;;;;;;;;;5098300;27;20426;-75
2023/10/22 08:59:09;;;;;;;5.25;2.05;;;;;;;;;;5102572;28;20408;-75
2023/10/22 09:01:35;;;;;;;4.10;1.70;;;;;;;;;;5106561;27;20787;-75
2023/10/22 09:04:02;;;;;;;7.43;2.00;;;;;;;;;;5104341;27;20515;-75
2023/10/22 09:06:28;;;;;;;8.00;2.28;;;;;;;;;;5118752;27;20417;-75
2023/10/22 09:08:54;;;;;;;7.97;2.30;;;;;;;;;;5133440;27;20472;-75
2023/10/22 09:11:20;;;;;;;5.68;1.90;;;;;;;;;;5099160;28;20930;-73
2023/10/22 09:13:47;;;;;;;6.80;1.90;;;;;;;;;;5095073;27;20402;-75
2023/10/22 09:16:33;;;;;;;6.00;1.40;;;13.00;99.90;;;;;;5093978;28;20411;-75
2023/10/22 09:19:01;;;;;;;4.72;1.55;;;;;;;;;;5107400;27;20407;-74
2023/10/22 09:21:43;;;;;;;7.13;1.52;;;;;;;;;;5087735;27;20758;-75
2023/10/22 09:24:10;;;;;;;5.82;1.55;;;13.70;99.90;;;;;;5120913;27;20409;-74
2023/10/22 09:26:42;;;;;;;5.50;1.42;;;;;;;;;;5092377;27;20410;-74
2023/10/22 09:29:08;;;;;;;4.30;1.20;;;;;;;;;;5105104;27;20409;-74
2023/10/22 09:31:35;;;;;;;4.60;1.35;;;;;;;;;;5094637;27;20425;-75
2023/10/22 09:34:02;;;;;;;3.25;1.10;;;;;;;;;;5090354;28;20412;-74
2023/10/22 09:36:28;;;;;;;4.07;1.10;;;;;;;;;;5096726;27;20404;-75
2023/10/22 09:38:54;;;;;;;4.65;1.10;;;;;;;;;;5119189;27;20458;-75
2023/10/22 09:41:27;;;;;;;6.00;1.23;;;;;;;;;;5106996;27;20897;-75
2023/10/22 09:44:06;;;;;;;2.95;0.90;;;;;;;;;;5099790;27;20423;-75
2023/10/22 09:46:33;;;;;;;4.05;1.35;;;;;;;;;;5110716;27;20425;-75
2023/10/22 09:49:01;;;;;;;4.83;1.60;;;13.60;99.90;;;;;;5099304;27;20406;-74
2023/10/22 09:51:30;;;;;;;5.47;2.00;;;;;;;;;;5108052;27;20905;-75
2023/10/22 09:53:57;;;;;;;4.75;1.15;;;;;;;;;;5099576;27;20410;-74
2023/10/22 09:56:23;;;;;;;3.58;1.20;;;13.50;99.90;;;;;;5087292;28;20399;-74
2023/10/22 09:58:53;;;;;;;6.00;1.00;;;;;;;;;;5094033;28;20400;-74
2023/10/22 10:01:19;;;;;;;3.33;1.15;;;;;;;;;;5096994;27;20495;-74
2023/10/22 10:03:46;;;;;;;4.28;1.05;;;13.70;99.90;;;;;;5131115;27;20412;-72
2023/10/22 10:06:12;;;;;;;3.17;0.90;;;;;;;;;;5088837;27;20448;-74
2023/10/22 10:08:39;;;;;;;3.20;1.00;;;;;;;;;;5108514;28;20398;-75
2023/10/22 10:11:06;;;;;;;2.90;0.90;;;;;;;;;;5105181;27;20986;-74
2023/10/22 10:13:32;;;;;;;2.78;0.85;;;;;;;;;;5092475;27;20453;-74
2023/10/22 10:15:59;;;;;;;2.45;0.90;;;13.50;99.90;;;;;;5103276;27;20416;-74
2023/10/22 10:18:44;;;;;;;2.28;0.95;;;;;;;;;;5083473;28;20418;-74
2023/10/22 10:21:29;;;;;;;2.30;1.05;;;;;;;;;;5104814;28;20402;-74
2023/10/22 10:24:14;;;;;;;4.10;1.00;;;;;;;;;;5107472;28;20435;-74
2023/10/22 10:26:40;;;;;;;5.15;1.20;;;;;;;;;;5101096;28;20396;-74
2023/10/22 10:29:06;;;;;;;2.30;0.90;;;;;;;;;;5098066;28;20404;-75
2023/10/22 10:31:33;;;;;;;2.88;1.10;;;;;;;;;;5090893;28;20453;-74
2023/10/22 10:33:59;;;;;;;2.13;0.88;;;;;;;;;;5107265;28;20402;-74
2023/10/22 10:36:26;;;;;;;2.55;0.90;;;;;;;;;;5086388;28;20452;-74
2023/10/22 10:38:53;;;;;;;3.17;0.90;;;;;;;;;;5106564;28;20404;-74
2023/10/22 10:41:53;;;;;;;3.43;1.00;;;14.30;99.90;;;;;;5085226;27;20410;-74
2023/10/22 10:44:19;;;;;;;1.63;0.68;;;;;;;;;;5098874;27;20467;-74
2023/10/22 10:46:45;;;;;;;3.13;0.90;;;;;;;;;;5121138;27;20435;-75
2023/10/22 10:49:11;;;;;;;3.13;0.80;;;;;;;;;;5110672;27;20399;-74
2023/10/22 10:51:37;;;;;;;2.53;0.70;;;;;;;;;;5103679;27;20432;-74
2023/10/22 10:54:07;;;;;;;2.83;1.23;;;;;;;;;;5073282;28;20455;-74
2023/10/22 10:56:52;;;;;;;3.65;0.90;;;;;;;;;;5096366;28;20899;-74
2023/10/22 10:59:30;;;;;;;3.05;0.90;;;;;;;;;;5098993;28;20946;-74
2023/10/22 11:02:15;;;;;;;2.70;0.93;;;;;;;;;;5102154;28;20465;-73
2023/10/22 11:04:45;;;;;;;3.80;1.00;;;;;;;;;;5107635;28;20896;-74
2023/10/22 11:07:11;;;;;;;3.97;0.90;;;14.20;99.90;;;;;;5098897;27;20423;-74
2023/10/22 11:09:38;;;;;;;1.97;0.70;;;;;;;;;;5085828;28;20939;-74
2023/10/22 11:12:06;;;;;;;2.15;0.73;;;14.10;99.90;;;;;;5099122;28;20415;-73
2023/10/22 11:14:33;;;;;;;1.20;0.70;;;;;;;;;;5085232;28;20410;-73
2023/10/22 11:16:59;;;;;;;1.30;0.57;;;;;;;;;;5097380;28;20425;-73
2023/10/22 11:19:26;;;;;;;1.60;0.65;;;;;;;;;;5098213;28;20416;-73
2023/10/22 11:21:54;;;;;;;1.85;0.70;;;;;;;;;;5085970;28;20400;-73
2023/10/22 11:24:21;;;;;;;3.60;0.60;;;;;;;;;;5110752;28;20471;-73
2023/10/22 11:26:49;;;;;;;1.45;0.75;;;13.60;99.90;;;;;;5104045;28;20422;-73
2023/10/22 11:29:15;;;;;;;1.67;0.70;;;;;;;;;;5115095;28;20413;-73
2023/10/22 11:31:56;;;;;;;2.05;0.60;;;13.50;99.90;;;;;;5088201;27;20774;-73
2023/10/22 11:34:23;;;;;;;1.50;0.80;;;;;;;;;;5116408;27;20403;-74
2023/10/22 11:36:56;;;;;;;1.88;0.70;;;13.20;99.90;;;;;;5110630;27;20419;-73
2023/10/22 11:39:22;;;;;;;1.90;0.90;;;;;;;;;;5125768;27;20444;-74
2023/10/22 11:41:59;;;;;;;1.50;0.63;;;;;;;;;;5111119;27;20935;-74
2023/10/22 11:44:30;;;;;;;2.58;1.00;;;;;;;;;;5108876;27;20427;-74
2023/10/22 11:46:57;;;;;;;2.53;0.80;;;13.20;99.90;;;;;;5090681;27;20424;-73
2023/10/22 11:49:24;;;;;;;1.92;0.80;;;;;;;;;;5103229;27;20427;-74
2023/10/22 11:51:52;;;;;;;3.85;0.90;;;;;;;;;;5084213;27;20428;-74
2023/10/22 11:54:18;;;;;;;2.90;0.60;;;;;;;;;;5105635;27;20418;-73
2023/10/22 11:56:44;;;;;;;2.40;0.70;;;;;;;;;;5107140;27;20491;-73
2023/10/22 11:59:10;;;;;;;1.50;0.80;;;;;;;;;;5104932;27;20418;-73
2023/10/22 12:01:36;;;;;;;2.03;0.70;;;;;;;;;;5102846;27;20420;-83
2023/10/22 12:04:03;;;;;;;3.20;0.90;;;;;;;;;;5109383;27;20784;-83
2023/10/22 12:06:29;;;;;;;1.88;0.95;;;;;;;;;;5102260;27;20414;-83
2023/10/22 12:08:55;;;;;;;3.45;1.30;;;;;;;;;;5110673;27;20414;-83
2023/10/22 12:11:22;;;;;;;1.95;0.80;;;;;;;;;;5108719;27;20419;-83
2023/10/22 12:13:48;;;;;;;1.92;0.73;;;;;;;;;;5080852;27;20427;-83
2023/10/22 12:16:14;;;;;;;2.50;0.90;;;;;;;;;;5108265;27;20495;-83
2023/10/22 12:18:39;;;;;;;1.65;0.80;;;14.30;99.90;;;;;;5114120;27;20948;-83
2023/10/22 12:21:06;;;;;;;2.67;0.90;;;;;;;;;;5096454;27;20508;-83
2023/10/22 12:23:32;;;;;;;2.78;0.90;;;;;;;;;;5117515;27;20433;-84
2023/10/22 12:25:58;;;;;;;2.53;1.00;;;;;;;;;;5115437;27;20419;-84
2023/10/22 12:28:26;;;;;;;2.38;0.75;;;;;;;;;;5085537;27;20423;-83
2023/10/22 12:30:52;;;;;;;2.35;0.90;;;;;;;;;;5111841;27;20926;-81
2023/10/22 12:33:17;;;;;;;2.97;1.00;;;15.20;99.90;;;;;;5075915;27;20531;-81
2023/10/22 12:35:43;;;;;;;1.60;0.80;;;;;;;;;;5110108;27;20947;-83
2023/10/22 12:38:09;;;;;;;1.60;0.80;;;15.70;99.90;;;;;;5097626;27;20923;-83
2023/10/22 12:40:35;;;;;;;3.13;0.90;;;;;;;;;;5091251;27;20413;-84
2023/10/22 12:43:01;;;;;;;2.13;0.73;;;15.90;99.90;;;;;;5108827;27;20419;-83
2023/10/22 12:45:27;;;;;;;1.95;0.85;;;;;;;;;;5081554;28;20420;-84
2023/10/22 12:47:53;;;;;;;3.33;0.90;;;;;;;;;;5117926;27;20414;-83
2023/10/22 12:50:19;;;;;;;2.92;0.85;;;15.60;99.90;;;;;;5113752;27;20416;-84
2023/10/22 12:52:45;;;;;;;1.70;0.70;;;;;;;;;;5097015;27;20440;-83
2023/10/22 12:55:11;;;;;;;2.92;0.88;;;;;;;;;;5087929;27;20955;-83
2023/10/22 12:57:37;;;;;;;3.25;1.20;;;14.80;99.90;;;;;;5106188;27;20549;-83
2023/10/22 13:00:12;;;;;;;1.63;0.77;;;;;;;;;;5089567;27;20398;-82
2023/10/22 13:02:38;;;;;;;3.88;0.80;;;;;;;;;;5119363;27;20810;-83
2023/10/22 13:05:07;;;;;;;3.23;0.90;;;14.20;99.90;;;;;;5111757;27;20565;-83
2023/10/22 13:07:33;;;;;;;2.40;0.80;;;;;;;;;;5070302;27;20426;-83
2023/10/22 13:09:59;;;;;;;2.60;0.90;;;;;;;;;;5091902;27;20434;-83
2023/10/22 13:12:26;;;;;;;1.70;0.85;;;;;;;;;;5108091;27;20413;-83
2023/10/22 13:14:53;;;;;;;2.72;0.90;;;;;;;;;;5113042;27;20453;-83
2023/10/22 13:17:20;;;;;;;3.17;1.10;;;;;;;;;;5096795;28;20419;-83
2023/10/22 13:19:46;;;;;;;2.78;1.13;;;;;;;;;;5086916;27;20416;-83
2023/10/22 13:22:12;;;;;;;2.88;1.10;;;;;;;;;;5084780;27;20921;-82
2023/10/22 13:24:37;;;;;;;2.63;0.80;;;14.50;99.90;;;;;;5100637;28;20423;-83
2023/10/22 13:27:03;;;;;;;5.13;1.42;;;;;;;;;;5104377;27;20418;-83
2023/10/22 13:29:29;;;;;;;6.05;1.10;;;;;;;;;;5108360;27;20455;-83
2023/10/22 13:31:56;;;;;;;2.92;1.20;;;;;;;;;;5103233;27;20416;-83
2023/10/22 13:34:22;;;;;;;2.93;1.50;;;;;;;;;;5107924;27;20451;-83
2023/10/22 13:36:48;;;;;;;2.67;1.20;;;;;;;;;;5110438;27;20492;-83
2023/10/22 13:39:14;;;;;;;3.40;1.27;;;;;;;;;;5104083;27;20416;-83
2023/10/22 13:41:43;;;;;;;4.28;1.48;;;;;;;;;;5092429;28;20895;-82
2023/10/22 13:44:10;;;;;;;4.20;1.20;;;;;;;;;;5105625;27;20482;-83
2023/10/22 13:46:36;;;;;;;2.80;1.40;;;14.30;99.90;;;;;;5111088;27;20915;-84
2023/10/22 13:49:02;;;;;;;3.72;1.27;;;;;;;;;;5087781;27;20402;-83
2023/10/22 13:51:28;;;;;;;5.35;1.52;;;;;;;;;;5106891;27;20424;-83
2023/10/22 13:53:54;;;;;;;6.38;1.80;;;;;;;;;;5080549;27;20467;-83
2023/10/22 13:56:20;;;;;;;4.40;1.38;;;;;;;;;;5095912;28;20400;-84
2023/10/22 13:58:46;;;;;;;4.40;1.75;;;;;;;;;;5094523;28;20392;-83
2023/10/22 14:01:12;;;;;;;4.23;1.37;;;;;;;;;;5085257;27;20424;-83
2023/10/22 14:03:38;;;;;;;6.30;1.60;;;;;;;;;;5088789;27;20459;-83
2023/10/22 14:06:04;;;;;;;6.07;1.50;;;;;;;;;;5113027;27;20402;-84
2023/10/22 14:08:30;;;;;;;4.88;1.42;;;;;;;;;;5111814;27;20410;-83
2023/10/22 14:10:57;;;;;;;3.60;1.50;;;;;;;;;;5101338;27;20422;-83
2023/10/22 14:13:25;;;;;;;4.50;1.40;;;;;;;;;;5095512;28;20819;-83
2023/10/22 14:15:51;;;;;;;4.70;1.30;;;;;;;;;;5094995;27;20403;-83
2023/10/22 14:18:17;;;;;;;6.30;1.85;;;;;;;;;;5090715;27;20418;-83
2023/10/22 14:20:45;;;;;;;4.05;1.48;;;;;;;;;;5107385;27;20406;-84
2023/10/22 14:23:11;;;;;;;4.22;1.25;;;;;;;;;;5097696;27;20398;-83
2023/10/22 14:25:37;;;;;;;4.63;2.00;;;;;;;;;;5114390;28;20398;-84
2023/10/22 14:28:03;;;;;;;4.80;1.30;;;;;;;;;;5112245;27;20405;-84